sensor_id;sensor_type;location;lat;lon;timestamp;P1;durP1;ratioP1;P2;durP2;ratioP2
43413;SDS011;73638;49.676;8.606;2024-01-06T00:04:01;3.2129;;;8.7898;;
43413;SDS011;73638;49.676;8.606;2024-01-06T00:09:07;2.8204;;;6.4596;;
43413;SDS011;73638;49.676;8.606;2024-01-06T00:14:13;3.1356;;;9.2079;;
43413;SDS011;73638;49.676;8.606;2024-01-06T00:19:20;3.7959;;;6.9071;;
43413;SDS011;73638;49.676;8.606;2024-01-06T00:24:27;2.8306;;;5.567;;
43413;SDS011;73638;49.676;8.606;2024-01-06T00:29:33;3.1827;;;8.5192;;
43413;SDS011;73638;49.676;8.606;2024-01-06T00:34:40;2.8471;;;6.6965;;
43413;SDS011;73638;49.676;8.606;2024-01-06T00:39:47;2.829;;;7.8049;;
43413;SDS011;73638;49.676;8.606;2024-01-06T00:44:53;2.6273;;;5.3942;;
43413;SDS011;73638;49.676;8.606;2024-01-06T00:50:00;2.4679;;;5.6311;;
43413;SDS011;73638;49.676;8.606;2024-01-06T00:55:06;2.7499;;;5.996;;
43413;SDS011;73638;49.676;8.606;2024-01-06T01:00:13;3.114;;;7.6967;;
43413;SDS011;73638;49.676;8.606;2024-01-06T01:05:20;3.3497;;;8.459;;
43413;SDS011;73638;49.676;8.606;2024-01-06T01:10:26;2.8999;;;6.6604;;
43413;SDS011;73638;49.676;8.606;2024-01-06T01:15:33;2.9101;;;8.0722;;
43413;SDS011;73638;49.676;8.606;2024-01-06T01:20:40;2.5466;;;4.3489;;
43413;SDS011;73638;49.676;8.606;2024-01-06T01:25:46;3.0055;;;7.4449;;
43413;SDS011;73638;49.676;8.606;2024-01-06T01:30:53;2.7797;;;6.2339;;
43413;SDS011;73638;49.676;8.606;2024-01-06T01:36:03;2.5892;;;5.4306;;
43413;SDS011;73638;49.676;8.606;2024-01-06T01:41:06;3.621;;;10.0872;;
43413;SDS011;73638;49.676;8.606;2024-01-06T01:46:13;2.5624;;;5.8775;;
43413;SDS011;73638;49.676;8.606;2024-01-06T01:51:19;2.0153;;;7.504;;
43413;SDS011;73638;49.676;8.606;2024-01-06T01:56:26;1.7682;;;3.3694;;
43413;SDS011;73638;49.676;8.606;2024-01-06T02:01:32;2.1742;;;5.559;;
43413;SDS011;73638;49.676;8.606;2024-01-06T02:06:39;2.2044;;;5.1081;;
43413;SDS011;73638;49.676;8.606;2024-01-06T02:11:46;2.0616;;;3.6266;;
43413;SDS011;73638;49.676;8.606;2024-01-06T02:16:52;2.2935;;;4.7347;;
43413;SDS011;73638;49.676;8.606;2024-01-06T02:21:59;2.2875;;;4.557;;
43413;SDS011;73638;49.676;8.606;2024-01-06T02:27:06;2.4665;;;5.8532;;
43413;SDS011;73638;49.676;8.606;2024-01-06T02:32:12;2.2124;;;6.7704;;
43413;SDS011;73638;49.676;8.606;2024-01-06T02:37:19;2.6607;;;8.5445;;
43413;SDS011;73638;49.676;8.606;2024-01-06T02:42:26;3.3782;;;9.1882;;
43413;SDS011;73638;49.676;8.606;2024-01-06T02:47:32;2.1871;;;6.7175;;
43413;SDS011;73638;49.676;8.606;2024-01-06T02:52:39;2.1264;;;5.8665;;
43413;SDS011;73638;49.676;8.606;2024-01-06T02:57:46;2.3268;;;6.6294;;
43413;SDS011;73638;49.676;8.606;2024-01-06T03:02:52;2.0222;;;6.7726;;
43413;SDS011;73638;49.676;8.606;2024-01-06T03:02:55;2.0222;;;6.7726;;
43413;SDS011;73638;49.676;8.606;2024-01-06T03:08:01;2.1718;;;7.0076;;
43413;SDS011;73638;49.676;8.606;2024-01-06T03:13:08;3.111;;;14.2032;;
43413;SDS011;73638;49.676;8.606;2024-01-06T03:18:15;2.1462;;;3.1848;;
43413;SDS011;73638;49.676;8.606;2024-01-06T03:23:21;2.2348;;;10.9537;;
43413;SDS011;73638;49.676;8.606;2024-01-06T03:28:28;2.2913;;;5.9179;;
43413;SDS011;73638;49.676;8.606;2024-01-06T03:33:35;2.1898;;;4.5274;;
43413;SDS011;73638;49.676;8.606;2024-01-06T03:38:42;1.7744;;;5.1075;;
43413;SDS011;73638;49.676;8.606;2024-01-06T03:43:48;2.0548;;;6.4471;;
43413;SDS011;73638;49.676;8.606;2024-01-06T03:48:55;2.38;;;6.9104;;
43413;SDS011;73638;49.676;8.606;2024-01-06T03:54:02;2.6682;;;14.6168;;
43413;SDS011;73638;49.676;8.606;2024-01-06T03:59:08;2.7238;;;6.2044;;
43413;SDS011;73638;49.676;8.606;2024-01-06T04:04:15;3.2521;;;5.7876;;
43413;SDS011;73638;49.676;8.606;2024-01-06T04:09:22;2.5794;;;6.252;;
43413;SDS011;73638;49.676;8.606;2024-01-06T04:14:28;2.9525;;;7.1636;;
43413;SDS011;73638;49.676;8.606;2024-01-06T04:19:35;3.1689;;;6.1326;;
43413;SDS011;73638;49.676;8.606;2024-01-06T04:24:42;3.1595;;;5.7648;;
43413;SDS011;73638;49.676;8.606;2024-01-06T04:29:48;2.6844;;;4.7025;;
43413;SDS011;73638;49.676;8.606;2024-01-06T04:34:55;2.9364;;;6.8232;;
43413;SDS011;73638;49.676;8.606;2024-01-06T04:40:02;3.4795;;;10.7599;;
43413;SDS011;73638;49.676;8.606;2024-01-06T04:45:09;4.127;;;6.2688;;
43413;SDS011;73638;49.676;8.606;2024-01-06T04:50:15;3.3347;;;9.1488;;
43413;SDS011;73638;49.676;8.606;2024-01-06T04:55:22;2.984;;;6.4701;;
43413;SDS011;73638;49.676;8.606;2024-01-06T05:00:29;3.1086;;;6.2647;;
43413;SDS011;73638;49.676;8.606;2024-01-06T05:05:36;3.0147;;;8.7467;;
43413;SDS011;73638;49.676;8.606;2024-01-06T05:10:42;2.4674;;;5.7966;;
43413;SDS011;73638;49.676;8.606;2024-01-06T05:15:49;2.7246;;;9.9116;;
43413;SDS011;73638;49.676;8.606;2024-01-06T05:20:56;2.6431;;;6.9549;;
43413;SDS011;73638;49.676;8.606;2024-01-06T05:26:03;2.4751;;;9.9622;;
43413;SDS011;73638;49.676;8.606;2024-01-06T05:31:09;2.4822;;;4.3897;;
43413;SDS011;73638;49.676;8.606;2024-01-06T05:36:18;2.3687;;;5.1571;;
43413;SDS011;73638;49.676;8.606;2024-01-06T05:41:22;3.0463;;;7.5095;;
43413;SDS011;73638;49.676;8.606;2024-01-06T05:46:29;2.7852;;;6.6559;;
43413;SDS011;73638;49.676;8.606;2024-01-06T05:51:35;2.7201;;;3.4878;;
43413;SDS011;73638;49.676;8.606;2024-01-06T05:56:42;2.7303;;;7.4252;;
43413;SDS011;73638;49.676;8.606;2024-01-06T06:01:49;2.6416;;;5.2344;;
43413;SDS011;73638;49.676;8.606;2024-01-06T06:06:58;2.4933;;;6.4527;;
43413;SDS011;73638;49.676;8.606;2024-01-06T06:12:03;2.6213;;;3.8074;;
43413;SDS011;73638;49.676;8.606;2024-01-06T06:17:09;2.5907;;;4.4447;;
43413;SDS011;73638;49.676;8.606;2024-01-06T06:22:16;2.8751;;;6.5098;;
43413;SDS011;73638;49.676;8.606;2024-01-06T06:27:23;2.7956;;;5.5547;;
43413;SDS011;73638;49.676;8.606;2024-01-06T06:32:30;2.9359;;;5.0559;;
43413;SDS011;73638;49.676;8.606;2024-01-06T06:37:36;3.6448;;;11.087;;
43413;SDS011;73638;49.676;8.606;2024-01-06T06:42:42;2.9414;;;6.6596;;
43413;SDS011;73638;49.676;8.606;2024-01-06T06:47:49;2.5367;;;3.4012;;
43413;SDS011;73638;49.676;8.606;2024-01-06T06:52:55;2.6813;;;5.6429;;
43413;SDS011;73638;49.676;8.606;2024-01-06T06:58:02;2.3709;;;6.4265;;
43413;SDS011;73638;49.676;8.606;2024-01-06T07:03:09;2.8438;;;6.0929;;
43413;SDS011;73638;49.676;8.606;2024-01-06T07:08:16;2.865;;;5.6041;;
43413;SDS011;73638;49.676;8.606;2024-01-06T07:13:22;2.3543;;;5.5718;;
43413;SDS011;73638;49.676;8.606;2024-01-06T07:18:29;2.9596;;;6.4691;;
43413;SDS011;73638;49.676;8.606;2024-01-06T07:23:36;2.4345;;;4.9708;;
43413;SDS011;73638;49.676;8.606;2024-01-06T07:28:43;3.0191;;;7.0746;;
43413;SDS011;73638;49.676;8.606;2024-01-06T07:33:50;2.8501;;;6.7753;;
43413;SDS011;73638;49.676;8.606;2024-01-06T07:38:56;2.4566;;;5.2253;;
43413;SDS011;73638;49.676;8.606;2024-01-06T07:44:03;2.348;;;4.7232;;
43413;SDS011;73638;49.676;8.606;2024-01-06T07:49:10;2.3128;;;7.5635;;
43413;SDS011;73638;49.676;8.606;2024-01-06T07:54:16;3.1403;;;6.9369;;
43413;SDS011;73638;49.676;8.606;2024-01-06T07:59:23;2.9377;;;7.3527;;
43413;SDS011;73638;49.676;8.606;2024-01-06T08:04:30;2.613;;;5.4897;;
43413;SDS011;73638;49.676;8.606;2024-01-06T08:09:40;2.5412;;;3.7743;;
43413;SDS011;73638;49.676;8.606;2024-01-06T08:14:43;3.1643;;;8.1406;;
43413;SDS011;73638;49.676;8.606;2024-01-06T08:19:50;2.6676;;;4.3856;;
43413;SDS011;73638;49.676;8.606;2024-01-06T08:24:56;2.678;;;10.1187;;
43413;SDS011;73638;49.676;8.606;2024-01-06T08:30:04;2.651;;;4.9606;;
43413;SDS011;73638;49.676;8.606;2024-01-06T08:35:10;2.8971;;;5.0807;;
43413;SDS011;73638;49.676;8.606;2024-01-06T08:40:17;2.5915;;;5.1909;;
43413;SDS011;73638;49.676;8.606;2024-01-06T08:45:24;2.6306;;;5.5434;;
43413;SDS011;73638;49.676;8.606;2024-01-06T08:50:31;3.5661;;;8.5379;;
43413;SDS011;73638;49.676;8.606;2024-01-06T08:55:38;3.0755;;;9.1615;;
43413;SDS011;73638;49.676;8.606;2024-01-06T09:00:45;2.3629;;;5.1625;;
43413;SDS011;73638;49.676;8.606;2024-01-06T09:05:51;2.6693;;;5.7139;;
43413;SDS011;73638;49.676;8.606;2024-01-06T09:10:58;3.0271;;;5.293;;
43413;SDS011;73638;49.676;8.606;2024-01-06T09:16:05;2.4939;;;4.8902;;
43413;SDS011;73638;49.676;8.606;2024-01-06T09:21:12;2.6202;;;5.2132;;
43413;SDS011;73638;49.676;8.606;2024-01-06T09:26:19;2.7652;;;4.9393;;
43413;SDS011;73638;49.676;8.606;2024-01-06T09:31:26;2.8588;;;5.9394;;
43413;SDS011;73638;49.676;8.606;2024-01-06T09:36:33;3.1735;;;8.2821;;
43413;SDS011;73638;49.676;8.606;2024-01-06T09:41:40;3.0797;;;4.723;;
43413;SDS011;73638;49.676;8.606;2024-01-06T09:46:46;3.0453;;;5.6669;;
43413;SDS011;73638;49.676;8.606;2024-01-06T09:51:53;2.8542;;;5.6311;;
43413;SDS011;73638;49.676;8.606;2024-01-06T09:57:00;3.3985;;;7.197;;
43413;SDS011;73638;49.676;8.606;2024-01-06T10:02:06;2.7279;;;9.7877;;
43413;SDS011;73638;49.676;8.606;2024-01-06T10:07:13;3.2921;;;10.3984;;
43413;SDS011;73638;49.676;8.606;2024-01-06T10:12:22;3.1682;;;6.4403;;
43413;SDS011;73638;49.676;8.606;2024-01-06T10:17:27;3.5779;;;8.56;;
43413;SDS011;73638;49.676;8.606;2024-01-06T10:22:34;3.5607;;;10.0392;;
43413;SDS011;73638;49.676;8.606;2024-01-06T10:27:41;3.2126;;;4.2432;;
43413;SDS011;73638;49.676;8.606;2024-01-06T10:32:48;3.9044;;;9.4001;;
43413;SDS011;73638;49.676;8.606;2024-01-06T10:37:54;3.8074;;;4.8109;;
43413;SDS011;73638;49.676;8.606;2024-01-06T10:43:00;4.626;;;12.5811;;
43413;SDS011;73638;49.676;8.606;2024-01-06T10:48:07;3.9093;;;8.111;;
43413;SDS011;73638;49.676;8.606;2024-01-06T10:53:14;4.1509;;;7.4666;;
43413;SDS011;73638;49.676;8.606;2024-01-06T10:58:21;4.4557;;;8.9478;;
43413;SDS011;73638;49.676;8.606;2024-01-06T11:03:28;4.5399;;;7.9809;;
43413;SDS011;73638;49.676;8.606;2024-01-06T11:08:35;4.1968;;;8.8837;;
43413;SDS011;73638;49.676;8.606;2024-01-06T11:13:41;4.5762;;;7.6592;;
43413;SDS011;73638;49.676;8.606;2024-01-06T11:18:48;4.175;;;9.6307;;
43413;SDS011;73638;49.676;8.606;2024-01-06T11:24:13;3.9542;;;8.4577;;
43413;SDS011;73638;49.676;8.606;2024-01-06T11:29:02;4.4639;;;7.0586;;
43413;SDS011;73638;49.676;8.606;2024-01-06T11:34:12;4.3239;;;8.0372;;
43413;SDS011;73638;49.676;8.606;2024-01-06T11:39:47;3.9572;;;6.9752;;
43413;SDS011;73638;49.676;8.606;2024-01-06T11:44:22;4.3126;;;9.2726;;
43413;SDS011;73638;49.676;8.606;2024-01-06T11:49:29;5.488;;;11.4772;;
43413;SDS011;73638;49.676;8.606;2024-01-06T11:54:36;5.2214;;;11.6003;;
43413;SDS011;73638;49.676;8.606;2024-01-06T11:59:42;4.9853;;;16.8053;;
43413;SDS011;73638;49.676;8.606;2024-01-06T12:04:50;4.9283;;;8.4309;;
43413;SDS011;73638;49.676;8.606;2024-01-06T12:10:00;5.3302;;;11.0559;;
43413;SDS011;73638;49.676;8.606;2024-01-06T12:15:03;4.9612;;;9.9108;;
43413;SDS011;73638;49.676;8.606;2024-01-06T12:20:10;5.357;;;9.5144;;
43413;SDS011;73638;49.676;8.606;2024-01-06T12:25:17;4.8012;;;8.2604;;
43413;SDS011;73638;49.676;8.606;2024-01-06T12:30:24;4.4219;;;8.4626;;
43413;SDS011;73638;49.676;8.606;2024-01-06T12:35:31;4.6882;;;9.5156;;
43413;SDS011;73638;49.676;8.606;2024-01-06T12:40:37;4.3413;;;7.4753;;
43413;SDS011;73638;49.676;8.606;2024-01-06T12:45:44;4.7427;;;6.8831;;
43413;SDS011;73638;49.676;8.606;2024-01-06T12:50:50;4.6864;;;7.4049;;
43413;SDS011;73638;49.676;8.606;2024-01-06T12:55:57;5.1286;;;9.0671;;
43413;SDS011;73638;49.676;8.606;2024-01-06T13:01:04;4.8412;;;7.849;;
43413;SDS011;73638;49.676;8.606;2024-01-06T13:06:11;4.7969;;;8.8228;;
43413;SDS011;73638;49.676;8.606;2024-01-06T13:11:17;4.2291;;;7.5918;;
43413;SDS011;73638;49.676;8.606;2024-01-06T13:16:24;4.8694;;;9.7435;;
43413;SDS011;73638;49.676;8.606;2024-01-06T13:21:31;4.7812;;;8.0051;;
43413;SDS011;73638;49.676;8.606;2024-01-06T13:26:37;4.74;;;7.4237;;
43413;SDS011;73638;49.676;8.606;2024-01-06T13:31:44;5.3084;;;9.812;;
43413;SDS011;73638;49.676;8.606;2024-01-06T13:36:51;5.9812;;;8.1042;;
43413;SDS011;73638;49.676;8.606;2024-01-06T13:41:59;6.6937;;;11.1803;;
43413;SDS011;73638;49.676;8.606;2024-01-06T13:47:05;5.9509;;;8.187;;
43413;SDS011;73638;49.676;8.606;2024-01-06T13:52:12;5.9544;;;10.3667;;
43413;SDS011;73638;49.676;8.606;2024-01-06T13:57:19;5.9334;;;11.7748;;
43413;SDS011;73638;49.676;8.606;2024-01-06T14:02:26;5.9312;;;9.5702;;
43413;SDS011;73638;49.676;8.606;2024-01-06T14:07:32;7.7179;;;11.3195;;
43413;SDS011;73638;49.676;8.606;2024-01-06T14:12:39;6.8063;;;10.9809;;
43413;SDS011;73638;49.676;8.606;2024-01-06T14:17:46;6.9892;;;11.1604;;
43413;SDS011;73638;49.676;8.606;2024-01-06T14:22:52;7.2424;;;12.5033;;
43413;SDS011;73638;49.676;8.606;2024-01-06T14:27:59;6.5083;;;10.4723;;
43413;SDS011;73638;49.676;8.606;2024-01-06T14:33:06;6.3822;;;10.1337;;
43413;SDS011;73638;49.676;8.606;2024-01-06T14:38:12;7.533;;;14.2696;;
43413;SDS011;73638;49.676;8.606;2024-01-06T14:43:19;6.3685;;;10.8979;;
43413;SDS011;73638;49.676;8.606;2024-01-06T14:48:26;7.083;;;12.3783;;
43413;SDS011;73638;49.676;8.606;2024-01-06T14:53:32;7.6066;;;16.5935;;
43413;SDS011;73638;49.676;8.606;2024-01-06T14:58:39;8.6227;;;14.7883;;
43413;SDS011;73638;49.676;8.606;2024-01-06T15:03:46;8.9053;;;17.4342;;
43413;SDS011;73638;49.676;8.606;2024-01-06T15:08:52;8.2294;;;14.0032;;
43413;SDS011;73638;49.676;8.606;2024-01-06T15:13:59;7.2611;;;11.2904;;
43413;SDS011;73638;49.676;8.606;2024-01-06T15:19:06;7.0355;;;10.3061;;
43413;SDS011;73638;49.676;8.606;2024-01-06T15:24:13;6.8005;;;12.0831;;
43413;SDS011;73638;49.676;8.606;2024-01-06T15:29:20;7.6034;;;11.2171;;
43413;SDS011;73638;49.676;8.606;2024-01-06T15:34:26;7.5117;;;12.4166;;
43413;SDS011;73638;49.676;8.606;2024-01-06T15:39:33;7.4794;;;14.3036;;
43413;SDS011;73638;49.676;8.606;2024-01-06T15:44:39;7.7443;;;14.6074;;
43413;SDS011;73638;49.676;8.606;2024-01-06T15:49:46;8.5217;;;16.6381;;
43413;SDS011;73638;49.676;8.606;2024-01-06T15:54:53;13.5765;;;24.3021;;
43413;SDS011;73638;49.676;8.606;2024-01-06T15:59:59;9.3797;;;16.8252;;
43413;SDS011;73638;49.676;8.606;2024-01-06T16:05:06;8.6845;;;14.8057;;
43413;SDS011;73638;49.676;8.606;2024-01-06T16:10:12;10.3655;;;16.6294;;
43413;SDS011;73638;49.676;8.606;2024-01-06T16:15:19;8.8015;;;14.7429;;
43413;SDS011;73638;49.676;8.606;2024-01-06T16:20:26;10.1974;;;19.37;;
43413;SDS011;73638;49.676;8.606;2024-01-06T16:25:34;10.1935;;;17.8819;;
43413;SDS011;73638;49.676;8.606;2024-01-06T16:30:39;10.5558;;;18.3184;;
43413;SDS011;73638;49.676;8.606;2024-01-06T16:35:46;10.0116;;;20.7938;;
43413;SDS011;73638;49.676;8.606;2024-01-06T16:40:52;9.5081;;;15.0925;;
43413;SDS011;73638;49.676;8.606;2024-01-06T16:45:59;10.4603;;;16.8213;;
43413;SDS011;73638;49.676;8.606;2024-01-06T16:51:06;11.5966;;;18.8753;;
43413;SDS011;73638;49.676;8.606;2024-01-06T16:56:13;10.8924;;;17.627;;
43413;SDS011;73638;49.676;8.606;2024-01-06T17:01:22;9.2151;;;13.5366;;
43413;SDS011;73638;49.676;8.606;2024-01-06T17:06:26;8.8208;;;17.1587;;
43413;SDS011;73638;49.676;8.606;2024-01-06T17:11:33;9.1096;;;15.0341;;
43413;SDS011;73638;49.676;8.606;2024-01-06T17:16:39;8.4579;;;14.003;;
43413;SDS011;73638;49.676;8.606;2024-01-06T17:21:46;9.1954;;;13.749;;
43413;SDS011;73638;49.676;8.606;2024-01-06T17:26:53;9.5402;;;15.1689;;
43413;SDS011;73638;49.676;8.606;2024-01-06T17:31:59;7.7182;;;13.3757;;
43413;SDS011;73638;49.676;8.606;2024-01-06T17:37:06;7.5026;;;15.3769;;
43413;SDS011;73638;49.676;8.606;2024-01-06T17:42:13;8.3468;;;13.7877;;
43413;SDS011;73638;49.676;8.606;2024-01-06T17:47:19;9.701;;;18.3024;;
43413;SDS011;73638;49.676;8.606;2024-01-06T17:52:26;7.1894;;;14.2552;;
43413;SDS011;73638;49.676;8.606;2024-01-06T17:57:33;7.5136;;;13.2537;;
43413;SDS011;73638;49.676;8.606;2024-01-06T18:02:40;7.9682;;;13.8828;;
43413;SDS011;73638;49.676;8.606;2024-01-06T18:07:46;7.6222;;;13.577;;
43413;SDS011;73638;49.676;8.606;2024-01-06T18:12:53;7.2137;;;12.0078;;
43413;SDS011;73638;49.676;8.606;2024-01-06T18:18:01;6.8796;;;11.794;;
43413;SDS011;73638;49.676;8.606;2024-01-06T18:23:06;7.6144;;;14.3821;;
43413;SDS011;73638;49.676;8.606;2024-01-06T18:28:13;7.9584;;;15.1015;;
43413;SDS011;73638;49.676;8.606;2024-01-06T18:33:19;7.8086;;;16.1519;;
43413;SDS011;73638;49.676;8.606;2024-01-06T18:38:26;7.1223;;;13.9969;;
43413;SDS011;73638;49.676;8.606;2024-01-06T18:43:32;7.3649;;;12.3518;;
43413;SDS011;73638;49.676;8.606;2024-01-06T18:48:39;7.4678;;;13.3389;;
43413;SDS011;73638;49.676;8.606;2024-01-06T18:53:45;7.1798;;;12.4269;;
43413;SDS011;73638;49.676;8.606;2024-01-06T18:58:55;6.9869;;;12.4475;;
43413;SDS011;73638;49.676;8.606;2024-01-06T19:03:59;7.1004;;;13.6898;;
43413;SDS011;73638;49.676;8.606;2024-01-06T19:09:05;6.697;;;13.2898;;
43413;SDS011;73638;49.676;8.606;2024-01-06T19:14:12;7.2745;;;14.0791;;
43413;SDS011;73638;49.676;8.606;2024-01-06T19:19:22;6.2658;;;10.3207;;
43413;SDS011;73638;49.676;8.606;2024-01-06T19:24:36;6.9571;;;12.0602;;
43413;SDS011;73638;49.676;8.606;2024-01-06T19:29:32;6.8117;;;13.1349;;
43413;SDS011;73638;49.676;8.606;2024-01-06T19:34:39;6.4934;;;12.1641;;
43413;SDS011;73638;49.676;8.606;2024-01-06T19:39:45;7.2944;;;11.9851;;
43413;SDS011;73638;49.676;8.606;2024-01-06T19:44:52;8.0448;;;16.5987;;
43413;SDS011;73638;49.676;8.606;2024-01-06T19:49:59;7.8866;;;17.6633;;
43413;SDS011;73638;49.676;8.606;2024-01-06T19:55:06;7.7258;;;14.5765;;
43413;SDS011;73638;49.676;8.606;2024-01-06T20:00:12;8.3614;;;18.7484;;
43413;SDS011;73638;49.676;8.606;2024-01-06T20:05:19;7.5064;;;14.4684;;
43413;SDS011;73638;49.676;8.606;2024-01-06T20:10:26;6.8767;;;10.7335;;
43413;SDS011;73638;49.676;8.606;2024-01-06T20:15:33;6.1984;;;10.5722;;
43413;SDS011;73638;49.676;8.606;2024-01-06T20:20:39;6.6439;;;11.6558;;
43413;SDS011;73638;49.676;8.606;2024-01-06T20:25:46;7.6632;;;13.9195;;
43413;SDS011;73638;49.676;8.606;2024-01-06T20:30:53;7.6846;;;15.1638;;
43413;SDS011;73638;49.676;8.606;2024-01-06T20:35:59;8.5723;;;16.4182;;
43413;SDS011;73638;49.676;8.606;2024-01-06T20:41:06;8.3196;;;15.3041;;
43413;SDS011;73638;49.676;8.606;2024-01-06T20:46:15;8.9146;;;15.7447;;
43413;SDS011;73638;49.676;8.606;2024-01-06T20:51:19;8.933;;;17.6129;;
43413;SDS011;73638;49.676;8.606;2024-01-06T20:56:26;9.1293;;;16.1329;;
43413;SDS011;73638;49.676;8.606;2024-01-06T21:01:33;10.09;;;17.8999;;
43413;SDS011;73638;49.676;8.606;2024-01-06T21:06:39;8.9187;;;18.6365;;
43413;SDS011;73638;49.676;8.606;2024-01-06T21:11:46;7.997;;;15.2256;;
43413;SDS011;73638;49.676;8.606;2024-01-06T21:16:52;8.7685;;;16.1078;;
43413;SDS011;73638;49.676;8.606;2024-01-06T21:21:59;9.2634;;;17.6435;;
43413;SDS011;73638;49.676;8.606;2024-01-06T21:27:05;9.7344;;;19.529;;
43413;SDS011;73638;49.676;8.606;2024-01-06T21:32:13;9.4415;;;18.7429;;
43413;SDS011;73638;49.676;8.606;2024-01-06T21:37:19;9.3937;;;19.1601;;
43413;SDS011;73638;49.676;8.606;2024-01-06T21:42:26;9.2449;;;17.7949;;
43413;SDS011;73638;49.676;8.606;2024-01-06T21:47:32;9.7207;;;20.0432;;
43413;SDS011;73638;49.676;8.606;2024-01-06T21:52:41;9.5807;;;18.5876;;
43413;SDS011;73638;49.676;8.606;2024-01-06T21:57:46;9.4396;;;19.7986;;
43413;SDS011;73638;49.676;8.606;2024-01-06T22:02:53;9.6954;;;19.0933;;
43413;SDS011;73638;49.676;8.606;2024-01-06T22:07:59;9.7421;;;19.9077;;
43413;SDS011;73638;49.676;8.606;2024-01-06T22:13:06;10.7547;;;21.1099;;
43413;SDS011;73638;49.676;8.606;2024-01-06T22:18:13;9.3665;;;18.0936;;
43413;SDS011;73638;49.676;8.606;2024-01-06T22:23:19;8.6394;;;15.5183;;
43413;SDS011;73638;49.676;8.606;2024-01-06T22:28:26;7.2196;;;13.8433;;
43413;SDS011;73638;49.676;8.606;2024-01-06T22:33:33;8.5199;;;17.4781;;
43413;SDS011;73638;49.676;8.606;2024-01-06T22:38:55;7.3573;;;15.3209;;
43413;SDS011;73638;49.676;8.606;2024-01-06T22:43:46;8.0559;;;15.087;;
43413;SDS011;73638;49.676;8.606;2024-01-06T22:48:53;6.7576;;;12.3619;;
43413;SDS011;73638;49.676;8.606;2024-01-06T22:54:00;7.3877;;;12.9517;;
43413;SDS011;73638;49.676;8.606;2024-01-06T22:59:06;7.1437;;;11.4209;;
43413;SDS011;73638;49.676;8.606;2024-01-06T23:04:12;6.9689;;;14.5306;;
43413;SDS011;73638;49.676;8.606;2024-01-06T23:09:19;7.9378;;;14.6965;;
43413;SDS011;73638;49.676;8.606;2024-01-06T23:14:26;7.3632;;;14.3828;;
43413;SDS011;73638;49.676;8.606;2024-01-06T23:19:33;7.6631;;;15.188;;
43413;SDS011;73638;49.676;8.606;2024-01-06T23:24:39;8.3719;;;15.3945;;
43413;SDS011;73638;49.676;8.606;2024-01-06T23:29:46;7.5917;;;14.3671;;
43413;SDS011;73638;49.676;8.606;2024-01-06T23:34:53;7.4311;;;13.5882;;
43413;SDS011;73638;49.676;8.606;2024-01-06T23:39:59;7.418;;;14.6304;;
43413;SDS011;73638;49.676;8.606;2024-01-06T23:45:06;7.6346;;;22.7068;;
43413;SDS011;73638;49.676;8.606;2024-01-06T23:50:13;8.0558;;;14.8256;;
43413;SDS011;73638;49.676;8.606;2024-01-06T23:55:20;7.6968;;;14.0658;;
